Time;durP1;ratioP1;P1;durP2;ratioP2;P2;SDS_P1;SDS_P2;PMS_P1;PMS_P2;Temp;Humidity;BMP_temperature;BMP_pressure;BME280_temperature;BME280_humidity;BME280_pressure;Samples;Min_cycle;Max_cycle;Signal;HPM_P1;HPM_P2
2022/06/29 00:00:45;;;;;;;5.10;2.45;;;;;;;22.76;86.70;100255.75;5033546;28;20053;-77
2022/06/29 00:03:13;;;;;;;3.50;1.70;;;;;;;22.66;86.07;100254.38;5033342;28;20049;-78
2022/06/29 00:05:41;;;;;;;5.63;1.98;;;;;;;22.78;85.98;100252.59;5033604;28;20495;-78
2022/06/29 00:08:09;;;;;;;5.93;1.55;;;;;;;22.79;85.07;100238.25;5033957;28;20675;-78
2022/06/29 00:10:38;;;;;;;5.18;2.03;;;;;;;22.77;83.41;100235.03;5032147;28;20073;-78
2022/06/29 00:13:06;;;;;;;7.38;1.88;;;;;;;22.90;81.46;100234.84;5033274;28;20053;-78
2022/06/29 00:15:35;;;;;;;4.30;1.65;;;;;;;22.99;79.95;100234.59;5033277;28;20041;-77
2022/06/29 00:18:03;;;;;;;5.53;2.08;;;;;;;22.95;81.71;100235.34;5033067;28;20034;-78
2022/06/29 00:20:31;;;;;;;5.05;1.77;;;;;;;22.92;81.06;100226.94;5033250;28;20053;-78
2022/06/29 00:22:59;;;;;;;3.00;1.50;;;;;;;23.03;79.21;100227.09;5033102;28;20392;-77
2022/06/29 00:25:27;;;;;;;6.72;1.58;;;;;;;22.93;80.44;100218.16;5033619;28;20057;-78
2022/06/29 00:27:55;;;;;;;6.10;1.20;;;;;;;22.91;80.40;100225.28;5032292;28;20400;-77
2022/06/29 00:30:23;;;;;;;1.88;1.50;;;;;;;22.87;81.49;100219.66;5032884;28;20054;-79
2022/06/29 00:32:51;;;;;;;9.02;1.65;;;;;;;22.98;80.63;100208.69;5033008;28;20053;-78
2022/06/29 00:35:19;;;;;;;6.25;1.75;;;;;;;23.12;79.47;100205.28;5033149;28;20048;-78
2022/06/29 00:37:47;;;;;;;6.85;1.60;;;;;;;23.10;79.50;100207.66;5032913;28;20052;-78
2022/06/29 00:40:15;;;;;;;5.30;1.60;;;;;;;23.04;79.42;100190.44;5032590;28;20049;-78
2022/06/29 00:42:43;;;;;;;5.50;1.75;;;;;;;23.23;77.69;100197.88;5027935;28;20408;-78
2022/06/29 00:45:11;;;;;;;2.75;1.67;;;;;;;23.21;80.22;100203.03;5018985;28;20050;-78
2022/06/29 00:47:39;;;;;;;2.97;1.40;;;;;;;23.14;79.65;100202.13;5028355;28;20049;-78
2022/06/29 00:50:08;;;;;;;3.53;1.60;;;;;;;23.01;83.42;100193.97;5033242;28;20072;-78
2022/06/29 00:52:41;;;;;;;4.25;1.40;;;;;;;22.98;81.99;100208.69;5032220;28;20061;-78
2022/06/29 00:55:16;;;;;;;5.68;1.83;;;;;;;22.97;81.92;100212.63;5032474;28;20085;-78
2022/06/29 00:57:45;;;;;;;5.20;1.60;;;;;;;23.05;82.81;100197.63;5032507;28;20590;-77
2022/06/29 01:00:14;;;;;;;4.60;1.60;;;;;;;23.04;81.28;100204.41;5031564;28;20041;-78
2022/06/29 01:02:42;;;;;;;5.88;1.95;;;;;;;23.01;80.93;100193.97;5031561;28;20482;-77
2022/06/29 01:05:10;;;;;;;10.38;2.00;;;;;;;23.03;81.83;100196.41;5031694;28;20409;-78
2022/06/29 01:07:38;;;;;;;5.07;1.67;;;;;;;23.37;78.31;100198.50;5032308;28;20049;-78
2022/06/29 01:10:06;;;;;;;4.70;1.83;;;;;;;23.30;81.78;100202.78;5032131;28;20483;-77
2022/06/29 01:12:34;;;;;;;4.22;1.55;;;;;;;23.26;79.64;100198.34;5031948;28;20045;-77
2022/06/29 01:15:03;;;;;;;4.57;1.80;;;;;;;23.18;80.02;100203.00;5031937;28;20090;-77
2022/06/29 01:17:30;;;;;;;4.75;1.95;;;;;;;23.20;80.88;100203.41;5032278;28;20054;-78
2022/06/29 01:19:58;;;;;;;5.47;1.63;;;;;;;23.19;79.94;100196.22;5032211;28;20057;-77
2022/06/29 01:22:27;;;;;;;2.58;1.73;;;;;;;23.19;79.44;100191.47;5030216;28;20407;-77
2022/06/29 01:24:55;;;;;;;5.20;1.60;;;;;;;23.17;81.47;100195.81;5031993;28;20052;-77
2022/06/29 01:27:24;;;;;;;4.30;1.77;;;;;;;23.19;81.72;100185.88;5031896;28;20056;-77
2022/06/29 01:29:52;;;;;;;5.15;1.60;;;;;;;23.19;81.93;100188.66;5031248;28;20046;-78
2022/06/29 01:32:21;;;;;;;6.50;1.92;;;;;;;23.20;80.86;100195.03;5031630;28;20077;-78
2022/06/29 01:34:50;;;;;;;4.03;1.80;;;;;;;23.16;80.87;100178.25;5031873;28;20056;-77
2022/06/29 01:37:18;;;;;;;2.85;1.40;;;;;;;23.25;80.34;100186.34;5031411;28;20506;-77
2022/06/29 01:39:46;;;;;;;3.72;1.52;;;;;;;23.25;81.26;100186.34;5032434;28;20070;-77
2022/06/29 01:42:14;;;;;;;6.63;1.65;;;;;;;23.24;81.19;100179.16;5031559;28;20510;-77
2022/06/29 01:44:42;;;;;;;7.13;2.17;;;;;;;23.21;84.24;100179.91;5031459;28;20041;-77
2022/06/29 01:47:09;;;;;;;2.42;1.50;;;;;;;23.17;84.94;100191.00;5031297;28;20042;-77
2022/06/29 01:49:37;;;;;;;6.13;2.10;;;;;;;23.17;82.46;100184.66;5031348;28;20053;-77
2022/06/29 01:52:06;;;;;;;3.72;1.45;;;;;;;23.31;82.26;100190.44;5031684;28;20484;-77
2022/06/29 01:54:34;;;;;;;6.55;1.52;;;;;;;23.25;83.09;100197.50;5031755;28;20545;-77
2022/06/29 01:57:02;;;;;;;5.03;1.88;;;;;;;23.34;83.13;100200.88;5031474;28;20049;-77
2022/06/29 01:59:30;;;;;;;5.78;1.83;;;;;;;23.41;79.39;100210.53;5031610;28;20140;-77
2022/06/29 02:01:59;;;;;;;5.53;2.40;;;;;;;23.58;77.46;100217.53;5031573;28;20052;-77
2022/06/29 02:04:27;;;;;;;5.32;1.50;;;;;;;23.48;76.42;100205.84;5031466;28;20064;-77
2022/06/29 02:06:55;;;;;;;1.77;1.27;;;;;;;23.45;78.73;100197.41;5031350;28;20042;-77
2022/06/29 02:09:23;;;;;;;2.42;1.63;;;;;;;23.44;77.71;100195.81;5031258;28;20060;-77
2022/06/29 02:11:51;;;;;;;5.22;2.15;;;;;;;23.31;79.27;100190.44;5031479;28;20095;-77
2022/06/29 02:14:19;;;;;;;3.88;2.20;;;;;;;23.30;79.52;100194.41;5030131;28;20064;-77
2022/06/29 02:16:47;;;;;;;4.28;2.10;;;;;;;23.22;77.62;100185.13;5030968;28;20052;-77
2022/06/29 02:19:15;;;;;;;5.05;1.60;;;;;;;23.21;79.49;100186.31;5024902;28;20052;-77
2022/06/29 02:21:43;;;;;;;6.57;1.98;;;;;;;23.20;78.91;100187.50;5031202;28;20740;-77
2022/06/29 02:24:11;;;;;;;5.00;2.17;;;;;;;23.12;78.02;100194.13;5030624;28;20041;-77
2022/06/29 02:26:38;;;;;;;3.70;2.10;;;;;;;23.18;79.33;100198.19;5030857;28;20044;-77
2022/06/29 02:29:06;;;;;;;6.88;2.30;;;;;;;23.11;80.14;100191.72;5030737;28;20044;-77
2022/06/29 02:37:07;;;;;;;10.10;2.92;;;;;;;23.11;79.34;100188.94;5023139;28;20061;-77
2022/06/29 02:39:35;;;;;;;4.10;2.08;;;;;;;23.11;79.82;100183.38;5030939;28;20037;-77
2022/06/29 02:42:04;;;;;;;2.42;1.73;;;;;;;23.14;78.11;100196.53;5032986;28;20049;-77
2022/06/29 02:44:32;;;;;;;6.53;2.58;;;;;;;23.12;79.59;100187.75;5034589;28;20068;-77
2022/06/29 02:47:00;;;;;;;7.03;1.92;;;;;;;23.06;80.23;100190.03;5034854;28;20053;-77
2022/06/29 02:49:28;;;;;;;4.53;1.90;;;;;;;23.03;80.61;100190.81;5034775;28;20052;-77
2022/06/29 02:51:56;;;;;;;2.85;1.85;;;;;;;23.14;78.93;100202.94;5035118;28;20056;-77
2022/06/29 02:54:25;;;;;;;3.47;2.03;;;;;;;23.11;82.54;100208.47;5034629;28;20053;-77
2022/06/29 02:56:56;;;;;;;3.10;1.92;;;;;;;23.05;81.36;100211.59;5034650;28;20050;-77
2022/06/29 02:59:24;;;;;;;4.28;1.95;;;;;;;23.01;80.12;100204.34;5034617;28;20046;-77
2022/06/29 03:01:52;;;;;;;3.40;1.85;;;;;;;23.04;79.00;100201.59;5034698;28;20045;-77
2022/06/29 03:04:20;;;;;;;5.18;2.10;;;;;;;22.97;80.25;100207.06;5034255;28;20057;-77
2022/06/29 03:06:47;;;;;;;7.40;1.88;;;;;;;22.94;79.69;100205.03;5034798;28;20049;-77
2022/06/29 03:09:15;;;;;;;5.57;2.08;;;;;;;23.05;81.22;100214.38;5034463;28;20381;-77
2022/06/29 03:11:43;;;;;;;7.97;1.88;;;;;;;23.31;77.22;100218.38;5035037;28;20052;-77
2022/06/29 03:14:11;;;;;;;2.10;1.65;;;;;;;23.34;77.73;100202.84;5034656;28;20050;-77
2022/06/29 03:16:39;;;;;;;4.55;1.65;;;;;;;23.42;77.38;100209.34;5020764;28;20057;-77
2022/06/29 03:19:07;;;;;;;1.92;1.55;;;;;;;23.62;76.23;100216.41;5034620;28;20049;-77
2022/06/29 03:21:35;;;;;;;6.05;1.98;;;;;;;23.40;80.32;100231.25;5034024;28;20049;-76
2022/06/29 03:24:06;;;;;;;8.02;1.92;;;;;;;23.34;79.83;100251.13;5034202;28;20047;-77
2022/06/29 03:26:34;;;;;;;6.35;2.80;;;;;;;23.16;82.02;100261.19;5034294;28;20120;-77
2022/06/29 03:29:02;;;;;;;4.55;2.38;;;;;;;23.01;83.12;100276.88;5034189;28;20045;-77
2022/06/29 03:31:29;;;;;;;4.80;2.55;;;;;;;22.96;84.72;100280.78;5034127;28;20064;-77
2022/06/29 03:33:58;;;;;;;8.63;2.67;;;;;;;23.02;85.15;100293.25;5033956;28;20399;-77
2022/06/29 03:36:26;;;;;;;6.50;3.00;;;;;;;22.89;85.62;100286.25;5034204;28;20132;-77
2022/06/29 03:38:53;;;;;;;7.82;2.95;;;;;;;22.90;84.69;100271.94;5034035;28;20046;-77
2022/06/29 03:41:21;;;;;;;4.43;2.60;;;;;;;22.84;84.54;100262.25;5033843;28;20053;-77
2022/06/29 03:43:49;;;;;;;8.85;3.17;;;;;;;22.79;84.69;100249.41;5034365;28;20064;-77
2022/06/29 03:46:17;;;;;;;4.35;2.67;;;;;;;22.75;86.60;100233.78;5033864;28;20045;-77
2022/06/29 03:48:45;;;;;;;8.43;2.88;;;;;;;22.73;86.34;100227.78;5033544;28;20041;-77
2022/06/29 03:51:13;;;;;;;3.85;2.60;;;;;;;22.82;84.73;100219.97;5033802;28;20041;-77
2022/06/29 03:53:41;;;;;;;5.80;2.53;;;;;;;22.84;84.02;100223.22;5033366;28;20061;-77
2022/06/29 03:56:09;;;;;;;6.65;2.75;;;;;;;23.01;83.80;100226.66;5033864;28;20260;-77
2022/06/29 03:58:38;;;;;;;9.43;2.70;;;;;;;22.92;84.78;100240.88;5033698;28;20053;-77
2022/06/29 04:01:10;;;;;;;7.38;2.17;;;;;;;22.90;85.00;100243.22;5034033;28;20053;-77
2022/06/29 04:03:38;;;;;;;11.32;2.67;;;;;;;22.82;84.67;100256.22;5034109;28;20058;-77
2022/06/29 04:06:06;;;;;;;3.58;2.08;;;;;;;22.80;84.69;100236.28;5033642;28;20054;-77
2022/06/29 04:08:35;;;;;;;7.18;2.65;;;;;;;22.80;86.41;100245.47;5033944;28;20057;-77
2022/06/29 04:11:48;;;;;;;8.48;2.95;;;;;;;22.95;83.58;100242.91;5033125;28;20410;-77
2022/06/29 04:13:55;;;;;;;7.13;2.95;;;;;;;22.82;85.25;100236.69;5033468;28;20042;-77
2022/06/29 04:16:23;;;;;;;5.75;2.20;;;;;;;22.78;85.72;100235.84;5033397;28;20453;-77
2022/06/29 04:18:51;;;;;;;4.40;2.38;;;;;;;22.76;84.73;100229.81;5033126;28;20060;-77
2022/06/29 04:21:19;;;;;;;4.75;2.05;;;;;;;22.75;84.44;100228.22;5032563;28;20408;-77
2022/06/29 04:23:46;;;;;;;4.68;2.55;;;;;;;22.82;83.53;100233.91;5033092;28;20045;-77
2022/06/29 04:26:14;;;;;;;6.70;3.10;;;;;;;22.92;83.12;100232.50;5032038;28;20523;-77
2022/06/29 04:28:42;;;;;;;3.90;1.90;;;;;;;23.01;83.73;100238.63;5032742;28;20052;-77
2022/06/29 04:31:10;;;;;;;7.68;2.88;;;;;;;23.16;81.70;100236.06;5032917;28;20046;-77
2022/06/29 04:33:38;;;;;;;8.45;2.28;;;;;;;23.14;83.28;100242.00;5032964;28;20072;-77
2022/06/29 04:36:06;;;;;;;3.35;2.08;;;;;;;23.29;83.15;100243.03;5032861;28;20057;-81
2022/06/29 04:38:34;;;;;;;9.55;2.20;;;;;;;23.51;81.95;100240.56;5001109;28;20448;-80
2022/06/29 04:41:03;;;;;;;5.75;2.20;;;;;;;23.73;80.09;100241.69;4987441;28;20057;-81
2022/06/29 04:43:31;;;;;;;3.85;2.55;;;;;;;23.98;79.50;100232.00;5014588;28;20859;-81
2022/06/29 04:48:52;;;;;;;6.65;2.45;;;;;;;24.16;77.99;100240.63;5015734;28;20046;-81
2022/06/29 04:51:22;;;;;;;7.10;2.15;;;;;;;24.28;76.86;100236.75;4997943;28;20057;-80
2022/06/29 04:53:54;;;;;;;6.65;1.95;;;;;;;24.23;77.37;100235.13;5012624;28;20052;-80
2022/06/29 04:56:33;;;;;;;9.13;2.20;;;;;;;24.17;77.24;100239.44;5014595;28;20061;-84
2022/06/29 04:59:02;;;;;;;2.78;2.25;;;;;;;24.22;77.77;100233.50;5009868;28;20042;-83
2022/06/29 05:01:31;;;;;;;6.60;2.20;;;;;;;24.19;78.02;100239.06;4997915;28;20058;-86
2022/06/29 05:04:02;;;;;;;4.28;2.05;;;;;;;24.19;77.84;100237.06;5012574;28;20045;-82
2022/06/29 05:06:29;;;;;;;7.97;2.53;;;;;;;24.12;78.91;100235.00;5013584;28;20056;-82
2022/06/29 05:08:58;;;;;;;5.40;2.72;;;;;;;24.18;78.55;100229.88;5014548;28;20046;-81
2022/06/29 05:11:26;;;;;;;6.28;2.35;;;;;;;24.24;78.05;100221.97;5014056;28;20499;-82
2022/06/29 05:13:54;;;;;;;4.00;2.65;;;;;;;24.31;76.85;100227.63;5014687;28;20492;-82
2022/06/29 05:16:22;;;;;;;5.55;2.28;;;;;;;24.37;76.07;100212.09;5011967;28;20056;-82
2022/06/29 05:18:50;;;;;;;5.78;2.45;;;;;;;24.49;76.66;100213.81;5011886;28;20495;-82
2022/06/29 05:21:19;;;;;;;6.05;2.15;;;;;;;24.52;76.16;100221.44;5003787;28;20058;-82
2022/06/29 05:23:48;;;;;;;3.42;2.38;;;;;;;24.69;75.43;100213.59;4995915;28;20045;-83
2022/06/29 05:26:21;;;;;;;4.80;2.10;;;;;;;24.74;75.42;100215.22;5012213;28;20073;-83
2022/06/29 05:28:49;;;;;;;8.20;2.63;;;;;;;24.90;74.89;100210.19;4990509;28;20384;-83
2022/06/29 05:31:17;;;;;;;3.63;2.88;;;;;;;24.95;73.90;100207.03;4997981;28;20049;-83
2022/06/29 05:33:47;;;;;;;4.70;2.15;;;;;;;25.07;75.06;100217.13;5018418;28;20053;-83
2022/06/29 05:36:15;;;;;;;5.97;2.30;;;;;;;25.25;72.89;100215.63;5012749;28;20061;-83
2022/06/29 05:38:43;;;;;;;4.40;2.28;;;;;;;25.40;71.59;100220.13;5012525;28;20053;-83
2022/06/29 05:41:11;;;;;;;6.45;2.45;;;;;;;25.39;72.26;100217.72;4998119;28;20056;-83
2022/06/29 05:43:39;;;;;;;6.35;2.58;;;;;;;25.31;73.50;100219.69;5012928;28;20050;-83
2022/06/29 05:46:07;;;;;;;6.00;2.55;;;;;;;25.46;72.90;100217.78;5013929;28;20050;-83
2022/06/29 05:48:36;;;;;;;4.28;2.55;;;;;;;25.56;72.09;100216.25;5013152;28;20518;-83
2022/06/29 05:51:04;;;;;;;3.22;2.05;;;;;;;25.62;71.18;100228.69;5013526;28;20050;-83
2022/06/29 05:53:33;;;;;;;4.22;2.28;;;;;;;25.64;69.69;100226.28;5029815;28;20056;-83
2022/06/29 05:56:01;;;;;;;6.43;2.58;;;;;;;25.75;70.35;100229.13;4996722;28;20045;-83
2022/06/29 05:58:32;;;;;;;3.78;2.05;;;;;;;25.76;69.97;100228.75;5013545;28;20046;-83
2022/06/29 06:01:00;;;;;;;4.35;1.83;;;;;;;25.83;70.49;100233.59;5012893;28;20049;-83
2022/06/29 06:03:28;;;;;;;4.43;2.00;;;;;;;25.84;69.28;100232.38;5013300;28;20053;-82
2022/06/29 06:05:58;;;;;;;6.38;2.10;;;;;;;25.98;68.71;100230.81;5012928;28;20041;-82
2022/06/29 06:08:27;;;;;;;6.15;1.95;;;;;;;25.94;69.40;100230.81;5029858;28;20045;-82
2022/06/29 06:10:55;;;;;;;6.10;2.20;;;;;;;25.99;68.47;100219.22;5013293;28;20068;-82
2022/06/29 06:13:23;;;;;;;3.83;1.40;;;;;;;26.10;66.65;100229.69;4995105;28;20049;-82
2022/06/29 06:15:57;;;;;;;4.72;1.70;;;;;;;26.02;67.00;100226.84;4996158;28;20046;-83
2022/06/29 06:18:43;;;;;;;2.75;2.10;;;;;;;25.96;66.81;100236.81;4999861;28;20045;-83
2022/06/29 06:21:11;;;;;;;5.18;2.13;;;;;;;25.87;68.16;100242.00;5028402;28;20081;-83
2022/06/29 06:23:39;;;;;;;4.03;1.65;;;;;;;25.88;67.46;100238.00;5030354;28;20054;-81
2022/06/29 06:26:08;;;;;;;3.53;1.67;;;;;;;26.03;68.14;100241.66;5011103;28;20050;-87
2022/06/29 06:28:37;;;;;;;5.28;2.47;;;;;;;25.86;68.18;100237.59;5014123;28;20736;-87
2022/06/29 06:31:07;;;;;;;6.75;2.10;;;;;;;25.73;68.29;100234.31;4998296;28;20500;-86
2022/06/29 06:33:35;;;;;;;5.15;2.40;;;;;;;25.80;68.51;100237.16;5030530;28;20049;-85
2022/06/29 06:36:03;;;;;;;6.07;2.35;;;;;;;25.93;68.03;100234.00;5031720;28;20057;-85
2022/06/29 06:38:31;;;;;;;3.58;2.47;;;;;;;25.97;66.72;100235.66;5031467;28;20037;-86
2022/06/29 06:43:45;;;;;;;4.53;2.28;;;;;;;26.19;63.60;100241.31;5031434;28;20045;-85
2022/06/29 06:46:13;;;;;;;7.32;1.77;;;;;;;26.30;63.32;100236.56;5031598;28;20049;-85
2022/06/29 06:48:42;;;;;;;3.17;1.95;;;;;;;26.46;61.35;100245.81;5031449;28;20380;-85
2022/06/29 06:51:11;;;;;;;6.20;1.48;;;;;;;26.55;61.41;100247.00;5018113;28;20041;-84
2022/06/29 06:53:39;;;;;;;4.70;1.02;;;;;;;26.60;61.04;100251.44;5031573;28;20399;-85
2022/06/29 06:56:07;;;;;;;6.93;1.60;;;;;;;26.66;60.22;100252.66;5031387;28;20385;-84
2022/06/29 06:58:35;;;;;;;3.92;1.63;;;;;;;26.75;59.31;100255.06;5017950;28;20403;-85
2022/06/29 07:01:11;;;;;;;4.78;1.85;;;;;;;26.72;59.53;100258.66;5031549;28;20041;-86
2022/06/29 07:03:39;;;;;;;3.47;1.35;;;;;;;26.75;59.57;100238.22;5031364;28;20052;-85
2022/06/29 07:06:09;;;;;;;3.80;1.55;;;;;;;26.75;60.29;100252.25;5031408;28;20483;-85
2022/06/29 07:08:39;;;;;;;3.75;1.73;;;;;;;26.67;61.67;100250.63;5031497;28;20052;-84
2022/06/29 07:11:07;;;;;;;1.52;1.20;;;;;;;26.71;60.67;100254.25;5046419;28;20048;-84
2022/06/29 07:13:36;;;;;;;4.45;1.52;;;;;;;26.74;60.92;100264.69;5030203;28;20045;-85
2022/06/29 07:16:05;;;;;;;2.58;1.40;;;;;;;26.80;61.02;100268.72;5031191;28;20045;-85
2022/06/29 07:18:34;;;;;;;3.28;1.45;;;;;;;26.84;59.75;100265.91;5046504;28;20416;-85
2022/06/29 07:21:02;;;;;;;5.68;2.03;;;;;;;26.94;59.85;100265.13;5031031;28;20057;-85
2022/06/29 07:23:30;;;;;;;2.72;1.35;;;;;;;27.06;59.53;100272.34;5031381;28;20527;-85
2022/06/29 07:25:58;;;;;;;1.98;1.45;;;;;;;26.92;59.70;100261.91;5031134;28;20598;-85
2022/06/29 07:28:26;;;;;;;4.95;1.63;;;;;;;27.03;59.84;100272.34;5033373;28;20056;-85
2022/06/29 07:30:54;;;;;;;4.57;1.60;;;;;;;27.14;59.96;100266.72;5034919;28;20084;-86
2022/06/29 07:33:22;;;;;;;2.55;2.10;;;;;;;27.30;59.16;100269.91;5033582;28;20705;-85
2022/06/29 07:35:50;;;;;;;4.97;1.63;;;;;;;27.18;59.11;100273.94;5034769;28;20053;-86
2022/06/29 07:38:19;;;;;;;2.50;1.60;;;;;;;26.98;60.27;100265.13;5049713;28;20053;-85
2022/06/29 07:40:47;;;;;;;4.03;1.77;;;;;;;26.78;61.67;100273.91;5034787;28;20033;-85
2022/06/29 07:43:15;;;;;;;6.22;1.95;;;;;;;26.85;61.12;100256.28;5034465;28;20048;-85
2022/06/29 07:45:43;;;;;;;1.60;1.50;;;;;;;26.87;60.67;100267.09;5034689;28;20390;-86
2022/06/29 07:48:11;;;;;;;4.50;2.10;;;;;;;27.07;62.96;100273.13;5033100;28;20484;-86
2022/06/29 07:50:39;;;;;;;7.18;2.45;;;;;;;26.90;64.15;100266.28;5034485;28;20045;-85
2022/06/29 07:53:07;;;;;;;3.40;2.33;;;;;;;26.80;65.77;100271.53;5032363;28;20632;-84
2022/06/29 07:55:36;;;;;;;5.55;2.78;;;;;;;26.92;65.65;100261.91;5030042;28;20397;-87
2022/06/29 07:58:06;;;;;;;3.42;3.10;;;;;;;26.70;66.16;100267.47;5028572;28;20046;-86
2022/06/29 08:00:39;;;;;;;8.18;3.65;;;;;;;26.66;66.22;100269.50;5028086;28;20041;-85
2022/06/29 08:03:08;;;;;;;8.45;3.20;;;;;;;26.61;66.24;100281.09;5026619;28;20382;-85
2022/06/29 08:05:37;;;;;;;5.32;3.33;;;;;;;26.80;66.63;100291.16;5033534;28;20060;-87
2022/06/29 08:08:06;;;;;;;7.32;3.05;;;;;;;26.95;66.57;100279.97;5014530;28;20049;-88
2022/06/29 08:10:37;;;;;;;5.65;3.17;;;;;;;26.93;65.01;100279.56;5031194;28;20045;-84
2022/06/29 08:13:04;;;;;;;5.30;3.08;;;;;;;26.99;65.55;100272.34;5028178;28;20042;-82
2022/06/29 08:15:32;;;;;;;6.82;3.10;;;;;;;27.21;65.17;100278.75;5028053;28;20488;-83
2022/06/29 08:18:01;;;;;;;6.32;3.00;;;;;;;27.35;62.91;100271.50;5031729;28;20042;-82
2022/06/29 08:20:29;;;;;;;6.72;3.70;;;;;;;27.25;63.96;100275.94;5032656;28;20056;-82
2022/06/29 08:22:58;;;;;;;4.43;2.55;;;;;;;27.50;62.38;100283.53;5033037;28;20056;-81
2022/06/29 08:25:26;;;;;;;5.18;2.67;;;;;;;27.60;61.63;100274.31;5033101;28;20048;-81
2022/06/29 08:27:54;;;;;;;7.72;2.63;;;;;;;27.71;61.57;100276.28;5032730;28;20060;-82
2022/06/29 08:30:22;;;;;;;6.15;3.20;;;;;;;27.81;61.12;100289.50;5033467;28;20053;-81
2022/06/29 08:32:50;;;;;;;5.85;3.65;;;;;;;27.62;61.63;100279.53;5033612;28;20041;-81
2022/06/29 08:35:19;;;;;;;4.88;2.90;;;;;;;27.50;62.47;100272.28;5033647;28;20037;-82
2022/06/29 08:37:47;;;;;;;6.20;3.33;;;;;;;27.75;62.36;100277.88;5048337;28;20073;-83
2022/06/29 08:40:17;;;;;;;4.97;2.90;;;;;;;27.85;59.77;100281.06;5048616;28;20045;-82
2022/06/29 08:42:46;;;;;;;6.47;3.03;;;;;;;28.14;60.47;100287.38;5048803;28;20068;-89
2022/06/29 08:45:15;;;;;;;4.82;3.45;;;;;;;28.27;59.02;100289.75;5033270;28;20056;-82
2022/06/29 08:47:43;;;;;;;5.38;3.33;;;;;;;28.21;58.83;100277.28;5033193;28;20484;-83
2022/06/29 08:50:12;;;;;;;4.35;2.97;;;;;;;28.17;57.17;100278.13;5033132;28;20061;-82
2022/06/29 08:52:43;;;;;;;5.65;2.85;;;;;;;28.31;56.44;100290.53;5033110;28;20116;-82
2022/06/29 08:55:12;;;;;;;4.72;2.45;;;;;;;28.48;55.00;100276.78;5033267;28;20049;-82
2022/06/29 08:57:44;;;;;;;4.32;3.13;;;;;;;28.49;56.17;100278.38;5032833;28;20400;-81
2022/06/29 09:00:12;;;;;;;7.88;3.85;;;;;;;28.61;57.26;100289.16;5033069;28;20604;-83
2022/06/29 09:02:44;;;;;;;5.57;2.70;;;;;;;28.60;56.70;100290.38;5032798;28;20044;-82
2022/06/29 09:05:12;;;;;;;9.20;3.80;;;;;;;28.47;55.95;100281.59;5032977;28;20046;-83
2022/06/29 09:07:40;;;;;;;9.50;3.30;;;;;;;28.27;56.90;100284.94;5031547;28;20041;-82
2022/06/29 09:10:12;;;;;;;6.10;3.42;;;;;;;28.45;55.91;100295.28;5032869;28;20041;-82
2022/06/29 09:12:40;;;;;;;7.50;2.60;;;;;;;28.53;55.28;100284.75;5031583;28;20049;-83
2022/06/29 09:15:10;;;;;;;5.40;3.40;;;;;;;28.62;55.39;100299.19;5032804;28;20037;-82
2022/06/29 09:17:39;;;;;;;2.85;2.65;;;;;;;28.64;55.00;100299.56;5032460;28;20049;-82
2022/06/29 09:20:11;;;;;;;5.10;2.35;;;;;;;28.57;54.99;100302.44;5032530;28;20041;-81
2022/06/29 09:23:00;;;;;;;4.68;3.08;;;;;;;28.48;54.09;100291.63;5032334;28;20045;-81
2022/06/29 09:25:31;;;;;;;7.82;3.17;;;;;;;28.73;54.80;100299.09;5032486;28;20050;-82
2022/06/29 09:28:00;;;;;;;5.55;3.30;;;;;;;28.71;53.44;100290.28;5031229;28;20045;-82
2022/06/29 09:30:35;;;;;;;6.38;2.92;;;;;;;28.97;53.65;100299.38;5030777;28;20049;-81
2022/06/29 09:33:06;;;;;;;5.38;2.83;;;;;;;29.07;53.02;100294.84;5031183;28;20666;-83
2022/06/29 09:35:37;;;;;;;4.68;2.50;;;;;;;29.26;52.13;100301.16;5032404;28;20399;-81
2022/06/29 09:38:25;;;;;;;6.63;2.85;;;;;;;29.20;52.05;100304.41;5031998;28;20053;-81
2022/06/29 09:40:57;;;;;;;3.38;2.25;;;;;;;29.26;51.32;100306.78;5032325;28;20045;-81
2022/06/29 09:43:27;;;;;;;2.75;2.45;;;;;;;29.07;50.54;100308.94;5032029;28;20053;-81
2022/06/29 09:45:55;;;;;;;3.30;2.53;;;;;;;29.03;50.26;100311.00;5030858;28;20057;-82
2022/06/29 09:48:27;;;;;;;5.72;3.30;;;;;;;28.85;50.56;100309.09;5031992;28;20045;-81
2022/06/29 09:50:56;;;;;;;6.68;2.72;;;;;;;28.76;50.13;100309.56;5031613;28;20045;-82
2022/06/29 09:53:39;;;;;;;6.05;2.83;;;;;;;28.66;50.29;100311.22;5032054;28;20041;-82
2022/06/29 09:56:12;;;;;;;6.82;2.95;;;;;;;28.68;50.05;100319.25;5031784;28;20060;-82
2022/06/29 09:58:47;;;;;;;11.13;2.80;;;;;;;28.47;50.93;100318.19;5032079;28;20415;-82
2022/06/29 10:04:12;;;;;;;6.97;3.22;;;;;;;28.19;53.08;100321.91;5031641;28;20056;-83
2022/06/29 10:06:41;;;;;;;4.57;2.30;;;;;;;28.16;53.08;100329.94;5031863;28;20060;-82
2022/06/29 10:09:09;;;;;;;7.35;3.15;;;;;;;28.03;54.35;100337.22;5031677;28;20040;-81
2022/06/29 10:14:42;;;;;;;3.47;2.60;;;;;;;27.80;57.57;100351.75;5031698;28;20484;-81
2022/06/29 10:17:40;;;;;;;3.38;2.60;;;;;;;27.68;59.35;100355.78;5031645;28;20057;-83
2022/06/29 10:20:35;;;;;;;3.33;2.58;;;;;;;27.52;61.08;100354.19;5030681;28;20041;-83
2022/06/29 10:23:03;;;;;;;5.28;2.83;;;;;;;27.49;62.33;100349.34;5022105;28;20049;-82
2022/06/29 10:25:31;;;;;;;4.90;2.83;;;;;;;27.53;62.81;100360.59;5026247;28;20045;-81
2022/06/29 10:28:10;;;;;;;3.78;3.20;;;;;;;27.35;63.56;100350.97;5046901;28;20044;-82
2022/06/29 10:30:38;;;;;;;4.90;3.90;;;;;;;27.36;65.08;100349.78;5030850;28;20050;-83
2022/06/29 10:33:33;;;;;;;5.60;4.00;;;;;;;27.16;65.84;100348.56;5030949;28;20041;-82
2022/06/29 10:36:05;;;;;;;;;;;;;;;27.15;69.04;100346.94;5018418;28;20049;-82
2022/06/29 10:38:54;;;;;;;7.28;3.85;;;;;;;26.95;68.53;100338.91;5031541;28;19921;-83
2022/06/29 10:44:09;;;;;;;5.15;3.75;;;;;;;27.24;67.34;100322.88;5030238;28;20044;-83
2022/06/29 10:46:57;;;;;;;3.72;3.42;;;;;;;27.08;67.03;100319.69;5031436;28;20068;-83
2022/06/29 10:49:25;;;;;;;5.85;3.97;;;;;;;27.08;69.06;100317.66;5030133;28;20048;-83
2022/06/29 10:51:56;;;;;;;5.72;4.07;;;;;;;27.28;69.96;100316.47;5030195;28;20042;-83
2022/06/29 10:54:27;;;;;;;7.95;4.32;;;;;;;27.38;73.07;100312.84;5031553;28;20480;-82
2022/06/29 10:56:56;;;;;;;9.68;5.10;;;;;;;27.50;73.22;100300.38;5027731;28;20052;-82
2022/06/29 10:59:35;;;;;;;5.05;4.60;;;;;;;27.60;70.16;100310.84;5031250;28;20392;-82
2022/06/29 11:02:11;;;;;;;6.47;4.70;;;;;;;28.00;67.67;100305.09;5044696;28;20476;-82
2022/06/29 11:04:40;;;;;;;6.63;4.35;;;;;;;28.03;64.90;100304.28;5034222;28;20034;-82
2022/06/29 11:12:53;;;;;;;7.50;4.47;;;;;;;28.45;64.07;100292.47;5032865;28;20399;-82
2022/06/29 11:15:48;;;;;;;5.60;4.35;;;;;;;28.74;62.10;100295.06;5032461;28;20049;-81
2022/06/29 11:18:26;;;;;;;4.57;3.70;;;;;;;28.98;60.63;100306.59;5033694;28;20052;-83
2022/06/29 11:21:03;;;;;;;7.47;4.22;;;;;;;28.84;60.83;100304.69;5031253;28;20046;-83
2022/06/29 11:23:34;;;;;;;6.85;4.25;;;;;;;28.60;59.94;100293.19;5033692;28;20392;-84
2022/06/29 11:26:05;;;;;;;7.07;4.22;;;;;;;28.67;59.98;100292.31;5032639;28;20048;-82
2022/06/29 11:28:38;;;;;;;6.15;4.38;;;;;;;29.01;59.82;100304.97;5033272;28;20480;-82
2022/06/29 11:31:12;;;;;;;9.15;4.78;;;;;;;29.27;59.00;100291.47;5033196;28;20052;-82
2022/06/29 11:33:46;;;;;;;8.52;4.40;;;;;;;29.47;56.86;100286.06;5033151;28;20092;-83
2022/06/29 11:36:25;;;;;;;5.43;3.92;;;;;;;29.89;54.74;100292.47;5031159;28;20046;-82
2022/06/29 11:38:56;;;;;;;10.32;3.80;;;;;;;30.22;52.48;100285.63;5046129;28;20046;-82
2022/06/29 11:43:03;;;;;;;4.22;3.13;;;;;;;30.52;50.55;100298.91;5033128;28;20042;-81
2022/06/29 11:44:30;;;;;;;3.58;2.78;;;;;;;30.73;48.09;100294.19;5031018;28;20037;-82
2022/06/29 11:46:58;;;;;;;4.55;3.15;;;;;;;30.72;47.60;100283.34;5031673;28;20045;-82
2022/06/29 11:49:38;;;;;;;6.30;3.45;;;;;;;31.01;48.38;100294.97;5032773;28;20053;-81
2022/06/29 11:52:13;;;;;;;7.43;3.83;;;;;;;31.31;47.53;100283.97;5032696;28;20053;-81
2022/06/29 11:54:47;;;;;;;4.57;3.33;;;;;;;31.58;46.67;100297.22;5032736;28;20045;-81
2022/06/29 11:57:20;;;;;;;5.93;3.53;;;;;;;31.75;46.08;100298.09;5031380;28;20038;-82
2022/06/29 11:59:48;;;;;;;9.13;4.25;;;;;;;31.55;45.30;100286.75;5032828;28;20057;-81
2022/06/29 12:02:17;;;;;;;6.65;3.80;;;;;;;31.43;46.46;100286.19;5031450;28;20396;-83